Current Weather

Andersen Afb

Yigo, Guam (PGUA)

Report from: Monday, June 27, 2022 2:58 AM ChST
Current time: Monday, June 27, 2022 3:19 AM ChST

Nearby weather
Weather history
Weather forecast

Present weatherLight thunderstorm with rain
Temperature25.0°C (77.0°F)
Dew point23.0°C (73.4°F)
Winds 7 kts (3.6 m/s, 8.1 mph) East (80°)
Visibility10 mi. (16.1 km)
Clouds Few clouds 2,900 ft. (884 m)
Few clouds 4,100 ft. (1,250 m)
Scattered clouds 11,000 ft. (3,353 m)
Altimeter29.85 in.Hg (1011 mB)
Precip. events Rain began 2:58 AM
Relative humidity89 %
Density altitude1,616 ft. (493 m)
Sea-level pressure101.0 kPa (1010 mB, 29.82 in.Hg)
Remarks Fully automated report
System requires maintenance
Special weather observation
Automated weather observing station with precipitation discriminator
Flight conditions Visual Meteorological Conditions
Raw dataSPPA31 KWBC 261706 SPECI PGUA 261658Z AUTO 08007KT 10SM -TSRA FEW029 FEW041 SCT110 25/23 A2985 RMK AO2 RAB58 SLP099 $
An error has occurred. This application may no longer respond until reloaded. Reload 🗙